Scarborough, Trinidad And Tobago

7:40 AM AST on July 12, 2014 (GMT -0400)
Crown Point (TTCP) Elev 26 ft | 11.15 °N, 60.84 °W | Change Station

Current weather conditions updated 40 minutes ago

Partly Cloudy
Partly Cloudy
79 °F
Feels Like 79 °F
N
6
Wind Variable Wind from ENE

Today is forecast to be Cooler than yesterday. Thunderstorms early.

Today
High -- | Low -- °F
--% Chance of Precip.
Yesterday
High -- | Low -- °F
Precip. -- in
5:47 AM 6:30 PM
Full, 100% visible
Pressure 30.01 in
Visibility 6.2 miles
Clouds Few 1600 ft
Dew Point 70 °F
Humidity 74%
Rainfall 0.00 in
Snow Depth Not available.
UV 1 out of 12
Pollen Not available.
Air Quality Not available.
Flu Activity Not available.
METAR TTCP 121100Z 06005KT 9999 FEW016 26/21 Q1016 NOSIG

More Conditions Fewer Conditions

Pressure 30.01 in
Visibility 6.2 miles
Clouds Few 1600 ft
Dew Point 70 °F
Humidity 74%
Rainfall 0.00 in
Snow Depth Not available.
UV 1 out of 12
Pollen Not available.
Air Quality Not available.
Flu Activity Not available.
METAR TTCP 121100Z 06005KT 9999 FEW016 26/21 Q1016 NOSIG

More Conditions Fewer Conditions

10-Day Weather Forecast

Almanac

Astronomy

Jul. 12, 2014 Rise Set
Actual Time 5:47 AM AST 6:30 PM AST
Civil Twilight 5:24 AM AST 6:53 PM AST
Nautical Twilight 4:57 AM AST 7:20 PM AST
Astronomical Twilight 4:29 AM AST 7:48 PM AST
Moon 6:47 PM AST 5:47 AM AST
Length of Visible Light 13h 29m
Length of Day
12h 43m
Tomorrow will be 0m 18s shorter.
Full, 100% of the Moon is Illuminated
Today
Full
Jul 18
Last Quarter
Jul 26
New
Aug 3
First Quarter
Aug 10
Full

Yesterday's Extremes

Country Highs Country Lows

Community

WunderPhotos

Upload Photos

1,732,784 photos uploaded!

WunderBlogs® & News

Nearby

Snow Depth

Not available.

Earthquake Activity

City Distance Mag. Time & Date
No recent earthquake activity has been reported nearby.
Minimum magnitude displayed is 2.5.

Coastal Water Temperatures

Place Temperature
No Stations Reporting

Nearby Weather Stations

Station Location Temp. Heat Index Dew Point Humidity Wind Precip. Elev Updated Type
Woodlands 79.2 °F 77 °F - - East  at  5.0 mph 0.00 in / hr 855 ft 7:37 AM AST Normal

Show More Stations Show Fewer Stations